Time;durP1;ratioP1;P1;durP2;ratioP2;P2;SDS_P1;SDS_P2;PMS_P1;PMS_P2;Temp;Humidity;BMP_temperature;BMP_pressure;BME280_temperature;BME280_humidity;BME280_pressure;Samples;Min_cycle;Max_cycle;Signal;HPM_P1;HPM_P2
2020/12/17 00:00:57;;;;;;;37.88;21.23;;;;;;;6.17;100.00;100857.13;5230605;28;20029;-80
2020/12/17 00:03:27;;;;;;;38.55;20.95;;;;;;;6.23;100.00;100862.28;5228336;28;20025;-79
2020/12/17 00:05:57;;;;;;;35.22;20.67;;;;;;;6.20;100.00;100857.97;5228365;28;20044;-78
2020/12/17 00:08:27;;;;;;;32.70;19.10;;;;;;;6.07;100.00;100860.75;5228932;28;20040;-79
2020/12/17 00:10:58;;;;;;;32.97;19.30;;;;;;;6.05;100.00;100863.34;5228773;28;20036;-79
2020/12/17 00:13:28;;;;;;;34.45;19.50;;;;;;;5.98;100.00;100853.06;5229798;28;20040;-78
2020/12/17 00:15:59;;;;;;;33.42;19.65;;;;;;;6.10;100.00;100845.16;5226583;28;20025;-79
2020/12/17 00:18:29;;;;;;;32.28;18.48;;;;;;;5.99;100.00;100845.28;5226454;28;20029;-77
2020/12/17 00:20:59;;;;;;;31.15;19.20;;;;;;;6.02;100.00;100841.78;5230979;28;20020;-77
2020/12/17 00:23:29;;;;;;;33.63;20.10;;;;;;;6.09;100.00;100836.47;5238952;28;20351;-79
2020/12/17 00:26:00;;;;;;;32.70;18.85;;;;;;;6.12;100.00;100831.25;5227019;28;20039;-79
2020/12/17 00:28:30;;;;;;;31.92;18.45;;;;;;;6.24;100.00;100822.47;5229162;28;20021;-79
2020/12/17 00:31:00;;;;;;;30.02;18.50;;;;;;;6.29;100.00;100831.03;5227940;28;20037;-79
2020/12/17 00:33:30;;;;;;;28.00;18.13;;;;;;;6.36;100.00;100835.25;5227954;28;20386;-78
2020/12/17 00:36:01;;;;;;;31.55;18.15;;;;;;;6.34;100.00;100830.09;5227772;28;20043;-79
2020/12/17 00:38:31;;;;;;;31.13;17.45;;;;;;;6.23;100.00;100823.34;5228341;28;20447;-79
2020/12/17 00:41:02;;;;;;;28.60;18.17;;;;;;;6.28;100.00;100826.72;5225843;28;20039;-79
2020/12/17 00:43:32;;;;;;;26.92;17.40;;;;;;;6.31;100.00;100830.16;5228091;28;20028;-79
2020/12/17 00:46:02;;;;;;;29.90;17.42;;;;;;;6.30;100.00;100820.66;5227541;28;20033;-79
2020/12/17 00:48:33;;;;;;;29.63;17.88;;;;;;;6.37;100.00;100818.78;5227614;28;20081;-78
2020/12/17 00:51:04;;;;;;;34.40;17.75;;;;;;;6.37;100.00;100823.97;5240299;28;20024;-79
2020/12/17 00:53:34;;;;;;;27.95;17.25;;;;;;;6.28;100.00;100816.34;5238773;28;20256;-79
2020/12/17 00:56:05;;;;;;;28.90;17.20;;;;;;;6.33;100.00;100814.53;5227718;28;20031;-79
2020/12/17 00:58:36;;;;;;;27.08;16.92;;;;;;;6.41;100.00;100810.09;5230228;28;20022;-79
2020/12/17 01:01:08;;;;;;;28.73;17.17;;;;;;;6.41;100.00;100804.91;5227684;28;20025;-78
2020/12/17 01:03:39;;;;;;;25.83;16.55;;;;;;;6.43;100.00;100803.16;5227376;28;20028;-77
2020/12/17 01:06:09;;;;;;;26.90;17.42;;;;;;;6.43;100.00;100805.75;5225797;28;20032;-78
2020/12/17 01:08:39;;;;;;;28.10;16.77;;;;;;;6.46;100.00;100800.50;5226370;28;20418;-80
2020/12/17 01:11:10;;;;;;;27.35;17.10;;;;;;;6.41;100.00;100795.38;5216387;28;20115;-79
2020/12/17 01:13:40;;;;;;;26.90;16.40;;;;;;;6.42;100.00;100801.44;5226483;28;20160;-78
2020/12/17 01:16:10;;;;;;;27.08;17.00;;;;;;;6.44;100.00;100804.84;5233382;28;20035;-79
2020/12/17 01:18:40;;;;;;;25.58;16.15;;;;;;;6.46;100.00;100797.91;5236683;28;20461;-77
2020/12/17 01:21:11;;;;;;;25.85;16.13;;;;;;;6.60;100.00;100807.19;5234339;28;20047;-78
2020/12/17 01:23:41;;;;;;;27.13;16.40;;;;;;;6.64;100.00;100802.81;5246956;28;20021;-79
2020/12/17 01:26:11;;;;;;;24.15;15.45;;;;;;;6.71;100.00;100805.28;5243034;28;20438;-80
2020/12/17 01:28:42;;;;;;;25.50;15.93;;;;;;;6.64;100.00;100808.88;5227855;28;20467;-79
2020/12/17 01:31:13;;;;;;;24.73;15.80;;;;;;;6.52;100.00;100800.38;5223540;28;20036;-78
2020/12/17 01:33:43;;;;;;;25.27;15.77;;;;;;;6.54;100.00;100801.22;5226195;28;20031;-78
2020/12/17 01:36:14;;;;;;;26.08;16.20;;;;;;;6.49;100.00;100806.50;5223674;28;20021;-77
2020/12/17 01:38:44;;;;;;;25.60;15.82;;;;;;;6.36;100.00;100804.09;5221979;28;20028;-79
2020/12/17 01:41:15;;;;;;;23.83;15.35;;;;;;;6.35;100.00;100802.38;5225016;28;20047;-79
2020/12/17 01:43:46;;;;;;;25.35;16.13;;;;;;;6.31;100.00;100801.59;5228120;28;20383;-78
2020/12/17 01:46:16;;;;;;;26.35;15.70;;;;;;;6.28;100.00;100799.03;5225301;28;20521;-78
2020/12/17 01:48:47;;;;;;;28.65;16.60;;;;;;;6.35;100.00;100799.78;5227898;28;20053;-80
2020/12/17 01:51:17;;;;;;;27.55;16.35;;;;;;;6.33;100.00;100807.63;5227335;28;20082;-78
2020/12/17 01:53:47;;;;;;;25.52;16.15;;;;;;;6.41;100.00;100797.13;5224126;28;20029;-79
2020/12/17 01:56:22;;;;;;;27.70;17.08;;;;;;;6.38;100.00;100799.75;5225209;28;20111;-79
2020/12/17 01:59:11;;;;;;;25.43;16.20;;;;;;;6.29;100.00;100785.16;5227900;28;20020;-79
2020/12/17 02:01:50;;;;;;;26.90;16.27;;;;;;;6.30;100.00;100789.50;5224299;28;20025;-78
2020/12/17 02:04:25;;;;;;;25.05;16.45;;;;;;;6.56;100.00;100783.91;5226134;28;20025;-80
2020/12/17 02:06:55;;;;;;;27.10;15.75;;;;;;;6.51;100.00;100789.16;5227722;28;20428;-79
2020/12/17 02:09:25;;;;;;;30.08;16.33;;;;;;;6.48;100.00;100789.22;5226909;28;20037;-79
2020/12/17 02:11:58;;;;;;;26.00;16.17;;;;;;;6.62;100.00;100789.00;5224816;28;20017;-79
2020/12/17 02:14:28;;;;;;;30.17;17.05;;;;;;;6.67;100.00;100782.84;5224510;28;20021;-79
2020/12/17 02:16:58;;;;;;;24.27;15.82;;;;;;;6.71;100.00;100796.63;5225743;28;20031;-79
2020/12/17 02:19:29;;;;;;;26.67;16.73;;;;;;;6.68;100.00;100794.06;5226337;28;20035;-79
2020/12/17 02:21:59;;;;;;;25.65;16.27;;;;;;;6.77;100.00;100788.75;5217793;28;20182;-80
2020/12/17 02:24:30;;;;;;;27.75;16.98;;;;;;;6.83;100.00;100802.47;5224165;28;20024;-78
2020/12/17 02:27:00;;;;;;;25.42;16.70;;;;;;;7.03;100.00;100808.19;5225298;28;20508;-78
2020/12/17 02:29:30;;;;;;;23.73;16.20;;;;;;;7.12;100.00;100799.38;5221748;28;20021;-78
2020/12/17 02:32:01;;;;;;;25.83;16.33;;;;;;;7.09;100.00;100805.47;5225391;28;20142;-79
2020/12/17 02:34:31;;;;;;;27.48;16.90;;;;;;;7.08;100.00;100800.31;5223736;28;20028;-78
2020/12/17 02:37:01;;;;;;;25.98;16.00;;;;;;;7.10;100.00;100795.94;5227395;28;20089;-79
2020/12/17 02:39:33;;;;;;;25.58;16.02;;;;;;;7.17;100.00;100801.00;5225739;28;20027;-80
2020/12/17 02:42:04;;;;;;;25.65;16.45;;;;;;;7.17;100.00;100805.34;5226122;28;20044;-77
2020/12/17 02:44:35;;;;;;;26.55;15.65;;;;;;;7.10;100.00;100804.59;5226641;28;20475;-79
2020/12/17 02:47:06;;;;;;;28.85;16.20;;;;;;;7.10;100.00;100811.53;5224093;28;20021;-80
2020/12/17 02:49:37;;;;;;;25.77;16.50;;;;;;;7.03;100.00;100813.38;5226437;28;20028;-79
2020/12/17 02:52:08;;;;;;;27.45;16.10;;;;;;;7.07;100.00;100814.19;5226339;28;20035;-79
2020/12/17 02:54:38;;;;;;;24.42;15.80;;;;;;;7.04;100.00;100807.31;5226260;28;20029;-78
2020/12/17 02:57:09;;;;;;;27.80;16.45;;;;;;;7.01;100.00;100809.97;5222012;28;20615;-79
2020/12/17 02:59:40;;;;;;;26.10;16.75;;;;;;;6.97;100.00;100799.63;5223741;28;20355;-79
2020/12/17 03:02:11;;;;;;;25.73;16.08;;;;;;;7.01;100.00;100809.09;5227042;28;20545;-79
2020/12/17 03:04:42;;;;;;;26.60;16.52;;;;;;;7.04;100.00;100798.63;5225068;28;20032;-79
2020/12/17 03:07:13;;;;;;;24.95;16.15;;;;;;;7.06;100.00;100802.06;5223896;28;20524;-80
2020/12/17 03:09:43;;;;;;;26.55;16.80;;;;;;;7.07;100.00;100803.81;5225260;28;20044;-79
2020/12/17 03:12:14;;;;;;;24.08;15.68;;;;;;;7.08;100.00;100806.34;5222815;28;20017;-79
2020/12/17 03:14:44;;;;;;;25.70;16.48;;;;;;;7.03;100.00;100802.13;5227143;28;20025;-79
2020/12/17 03:17:14;;;;;;;25.48;16.80;;;;;;;7.04;100.00;100801.22;5227300;28;20021;-79
2020/12/17 03:19:44;;;;;;;25.17;16.00;;;;;;;7.19;100.00;100800.97;5227230;28;20029;-78
2020/12/17 03:22:15;;;;;;;24.45;14.82;;;;;;;7.12;100.00;100807.16;5239578;28;20062;-78
2020/12/17 03:24:45;;;;;;;23.98;15.52;;;;;;;7.24;100.00;100804.34;5224617;28;20024;-79
2020/12/17 03:27:15;;;;;;;25.73;14.57;;;;;;;7.30;100.00;100803.34;5226167;28;20530;-79
2020/12/17 03:29:46;;;;;;;23.85;14.70;;;;;;;7.33;100.00;100795.47;5225402;28;20429;-79
2020/12/17 03:32:16;;;;;;;22.90;13.45;;;;;;;7.52;100.00;100802.03;5218557;28;20025;-79
2020/12/17 03:34:47;;;;;;;21.58;13.68;;;;;;;7.67;100.00;100799.13;5224107;28;20025;-79
2020/12/17 03:37:17;;;;;;;19.08;12.63;;;;;;;7.64;100.00;100798.34;5227215;28;20032;-79
2020/12/17 03:39:47;;;;;;;21.90;13.80;;;;;;;7.72;100.00;100780.84;5219850;28;20082;-79
2020/12/17 03:42:18;;;;;;;24.02;13.68;;;;;;;7.66;100.00;100784.41;5224134;28;20055;-80
2020/12/17 03:44:48;;;;;;;22.38;14.43;;;;;;;7.67;100.00;100775.72;5228827;28;20162;-79
2020/12/17 03:47:18;;;;;;;21.25;13.45;;;;;;;7.63;100.00;100787.09;5222401;28;20025;-79
2020/12/17 03:49:49;;;;;;;22.30;14.27;;;;;;;7.66;100.00;100776.63;5224828;28;20086;-80
2020/12/17 03:52:19;;;;;;;20.67;12.23;;;;;;;7.72;100.00;100765.22;5225394;28;20025;-80
2020/12/17 03:54:49;;;;;;;19.27;12.63;;;;;;;7.71;100.00;100772.16;5242371;28;20021;-79
2020/12/17 03:57:19;;;;;;;19.60;12.77;;;;;;;7.68;100.00;100759.22;5231624;28;20372;-79
2020/12/17 03:59:50;;;;;;;20.73;13.10;;;;;;;7.67;100.00;100767.91;5226299;28;20032;-80
2020/12/17 04:02:20;;;;;;;19.60;13.10;;;;;;;7.68;100.00;100764.44;5225450;28;20162;-79
2020/12/17 04:04:50;;;;;;;20.48;12.50;;;;;;;7.66;100.00;100765.38;5225415;28;20052;-79
2020/12/17 04:07:20;;;;;;;21.23;12.65;;;;;;;7.71;100.00;100763.53;5226131;28;20017;-77
2020/12/17 04:09:51;;;;;;;19.63;12.45;;;;;;;7.69;100.00;100755.75;5231923;28;20024;-79
2020/12/17 04:12:21;;;;;;;20.05;12.77;;;;;;;7.68;100.00;100759.22;5223852;28;20033;-78
2020/12/17 04:14:52;;;;;;;19.48;12.23;;;;;;;7.72;100.00;100758.28;5224846;28;20512;-78
2020/12/17 04:17:22;;;;;;;18.27;12.13;;;;;;;7.78;100.00;100760.75;5224861;28;20415;-79
2020/12/17 04:19:52;;;;;;;20.42;12.32;;;;;;;7.70;100.00;100762.66;5224635;28;20021;-78
2020/12/17 04:22:23;;;;;;;21.15;12.25;;;;;;;7.79;100.00;100767.69;5242917;28;20150;-78
2020/12/17 04:24:53;;;;;;;20.42;13.32;;;;;;;7.77;100.00;100769.47;5244594;28;20464;-78
2020/12/17 04:27:23;;;;;;;17.00;11.65;;;;;;;7.92;100.00;100773.47;5245729;28;20031;-78
2020/12/17 04:29:53;;;;;;;19.48;12.88;;;;;;;7.92;100.00;100770.84;5244664;28;20074;-78
2020/12/17 04:32:24;;;;;;;17.58;11.85;;;;;;;7.93;100.00;100764.75;5224758;28;20112;-78
2020/12/17 04:34:54;;;;;;;22.73;12.75;;;;;;;7.83;100.00;100771.91;5239330;28;20398;-78
2020/12/17 04:37:24;;;;;;;18.75;12.02;;;;;;;7.82;100.00;100767.59;5225586;28;20032;-78
2020/12/17 04:39:54;;;;;;;19.25;12.15;;;;;;;7.76;100.00;100761.66;5237640;28;20030;-79
2020/12/17 04:42:25;;;;;;;18.38;11.27;;;;;;;7.87;100.00;100767.50;5245219;28;20028;-78
2020/12/17 04:44:56;;;;;;;19.52;12.02;;;;;;;7.87;100.00;100763.16;5237544;28;20471;-79
2020/12/17 04:47:30;;;;;;;18.25;12.15;;;;;;;7.70;100.00;100754.84;5225866;28;20112;-79
2020/12/17 04:50:11;;;;;;;18.48;12.02;;;;;;;7.60;100.00;100755.94;5224771;28;20731;-78
2020/12/17 04:52:43;;;;;;;19.50;12.23;;;;;;;7.57;100.00;100760.34;5223248;28;20032;-79
2020/12/17 04:55:13;;;;;;;21.10;13.00;;;;;;;7.63;100.00;100753.28;5223347;28;20063;-78
2020/12/17 04:57:45;;;;;;;20.15;12.35;;;;;;;7.64;100.00;100755.00;5225284;28;20486;-80
2020/12/17 05:00:15;;;;;;;19.35;12.65;;;;;;;7.62;100.00;100756.75;5226675;28;20047;-79
2020/12/17 05:02:47;;;;;;;18.88;12.38;;;;;;;7.65;100.00;100763.63;5225070;28;20150;-79
2020/12/17 05:05:18;;;;;;;22.10;12.88;;;;;;;7.64;100.00;100760.19;5225914;28;20047;-79
2020/12/17 05:07:48;;;;;;;17.63;12.18;;;;;;;7.66;100.00;100754.97;5227174;28;20051;-80
2020/12/17 05:10:19;;;;;;;21.17;12.50;;;;;;;7.63;100.00;100761.09;5225846;28;20021;-79
2020/12/17 05:12:49;;;;;;;20.60;12.15;;;;;;;7.60;100.00;100760.28;5225991;28;20036;-79
2020/12/17 05:15:23;;;;;;;19.13;12.60;;;;;;;7.48;100.00;100748.38;5226349;28;20025;-79
2020/12/17 05:17:54;;;;;;;18.73;11.43;;;;;;;7.45;100.00;100753.66;5227331;28;20028;-80
2020/12/17 05:20:26;;;;;;;19.20;11.93;;;;;;;7.46;100.00;100764.91;5227816;28;20027;-79
2020/12/17 05:22:57;;;;;;;18.33;11.73;;;;;;;7.54;100.00;100756.06;5245670;28;20027;-79
2020/12/17 05:25:27;;;;;;;18.92;12.05;;;;;;;7.41;100.00;100754.63;5233962;28;20021;-79
2020/12/17 05:28:01;;;;;;;20.00;11.48;;;;;;;7.43;100.00;100754.56;5228291;28;20016;-80
2020/12/17 05:30:35;;;;;;;18.60;11.18;;;;;;;7.38;100.00;100749.44;5226879;28;20028;-79
2020/12/17 05:33:06;;;;;;;21.13;12.13;;;;;;;7.47;100.00;100745.81;5225101;28;20082;-79
2020/12/17 05:35:40;;;;;;;17.90;11.85;;;;;;;7.47;100.00;100744.06;5226506;28;20386;-80
2020/12/17 05:38:11;;;;;;;20.10;11.48;;;;;;;7.41;100.00;100748.53;5227668;28;20029;-80
2020/12/17 05:40:43;;;;;;;17.70;11.50;;;;;;;7.42;100.00;100738.13;5228633;28;20103;-79
2020/12/17 05:43:20;;;;;;;21.35;12.68;;;;;;;7.29;100.00;100740.97;5227194;28;20020;-79
2020/12/17 05:45:50;;;;;;;21.23;12.75;;;;;;;7.16;100.00;100747.31;5229217;28;20032;-80
2020/12/17 05:48:21;;;;;;;20.70;12.15;;;;;;;7.28;100.00;100746.22;5224207;28;20053;-78
2020/12/17 05:51:00;;;;;;;20.08;12.73;;;;;;;7.30;100.00;100758.28;5225720;28;20199;-79
2020/12/17 05:53:32;;;;;;;21.52;12.32;;;;;;;7.24;100.00;100755.81;5226210;28;20155;-79
2020/12/17 05:56:05;;;;;;;20.98;12.52;;;;;;;7.26;100.00;100753.19;5225287;28;20017;-77
2020/12/17 05:58:39;;;;;;;19.73;12.75;;;;;;;7.24;100.00;100754.97;5225503;28;20017;-79
2020/12/17 06:01:17;;;;;;;20.20;12.82;;;;;;;7.19;100.00;100756.78;5223600;28;20017;-79
2020/12/17 06:03:47;;;;;;;21.42;12.40;;;;;;;7.21;100.00;100757.59;5224292;28;20029;-78
2020/12/17 06:06:18;;;;;;;19.58;11.73;;;;;;;7.22;100.00;100758.44;5222445;28;20072;-79
2020/12/17 06:08:51;;;;;;;19.77;12.20;;;;;;;7.31;100.00;100760.00;5228293;28;20025;-79
2020/12/17 06:11:23;;;;;;;19.58;11.65;;;;;;;7.34;100.00;100760.78;5226405;28;20421;-80
2020/12/17 06:13:55;;;;;;;16.90;11.18;;;;;;;7.30;100.00;100756.56;5227815;28;20452;-79
2020/12/17 06:16:26;;;;;;;19.63;11.75;;;;;;;7.32;100.00;100751.34;5222509;28;20054;-79
2020/12/17 06:18:58;;;;;;;20.30;11.05;;;;;;;7.33;100.00;100756.50;5218220;28;20394;-79
2020/12/17 06:21:28;;;;;;;19.17;12.27;;;;;;;7.33;100.00;100756.50;5235538;28;20017;-79
2020/12/17 06:23:59;;;;;;;19.15;11.35;;;;;;;7.33;100.00;100759.09;5246627;28;20066;-79
2020/12/17 06:26:38;;;;;;;17.45;10.73;;;;;;;7.34;100.00;100760.78;5240067;28;20036;-79
2020/12/17 06:29:18;;;;;;;19.73;11.68;;;;;;;7.36;100.00;100759.03;5226981;28;20043;-79
2020/12/17 06:32:15;;;;;;;15.60;10.55;;;;;;;7.38;100.00;100754.66;5226759;28;20059;-79
2020/12/17 06:34:49;;;;;;;16.30;10.38;;;;;;;7.36;100.00;100751.22;5227089;28;20043;-79
2020/12/17 06:37:20;;;;;;;17.63;11.18;;;;;;;7.31;100.00;100749.59;5226843;28;20025;-79
2020/12/17 06:39:50;;;;;;;16.02;9.90;;;;;;;7.31;100.00;100745.28;5225490;28;20021;-79
2020/12/17 06:42:39;;;;;;;16.73;10.85;;;;;;;7.33;100.00;100748.69;5225578;28;20029;-79
2020/12/17 06:45:33;;;;;;;17.83;10.75;;;;;;;7.32;100.00;100746.97;5223249;28;20067;-79
2020/12/17 06:48:38;;;;;;;17.60;10.93;;;;;;;7.32;100.00;100749.56;5225363;28;20056;-79
2020/12/17 06:51:35;;;;;;;17.33;10.70;;;;;;;7.34;100.00;100747.81;5226721;28;20032;-79
2020/12/17 06:54:29;;;;;;;16.48;10.40;;;;;;;7.33;100.00;100753.88;5226558;28;20025;-79
2020/12/17 06:57:16;;;;;;;17.98;10.68;;;;;;;7.41;100.00;100753.75;5227709;28;20025;-79
2020/12/17 07:00:16;;;;;;;20.33;10.05;;;;;;;7.43;100.00;100758.03;5229409;28;20103;-79
2020/12/17 07:02:46;;;;;;;17.73;10.02;;;;;;;7.43;100.00;100768.44;5218820;28;20037;-79
2020/12/17 07:05:31;;;;;;;18.67;10.13;;;;;;;7.44;100.00;100764.06;5240459;28;20074;-79
2020/12/17 07:08:01;;;;;;;18.83;11.13;;;;;;;7.42;100.00;100766.72;5230484;28;20021;-79
2020/12/17 07:10:32;;;;;;;17.40;11.07;;;;;;;7.41;100.00;100765.00;5223038;28;20063;-79
2020/12/17 07:13:02;;;;;;;16.52;10.48;;;;;;;7.42;100.00;100764.13;5222664;28;20031;-79
2020/12/17 07:15:37;;;;;;;16.15;10.25;;;;;;;7.42;100.00;100771.91;5221265;28;20025;-79
2020/12/17 07:18:21;;;;;;;14.43;9.48;;;;;;;7.41;100.00;100780.63;5220997;28;20016;-78
2020/12/17 07:20:52;;;;;;;16.10;9.98;;;;;;;7.47;100.00;100784.81;5223574;28;20044;-79
2020/12/17 07:23:23;;;;;;;15.43;9.88;;;;;;;7.50;100.00;100792.56;5222279;28;20440;-79
2020/12/17 07:25:53;;;;;;;14.98;9.85;;;;;;;7.57;100.00;100807.16;5219149;28;20017;-79
2020/12/17 07:28:25;;;;;;;15.90;9.77;;;;;;;7.60;100.00;100809.69;5221677;28;20076;-79
2020/12/17 07:30:55;;;;;;;15.77;9.35;;;;;;;7.65;100.00;100800.91;5226625;28;20506;-78
2020/12/17 07:33:38;;;;;;;14.85;9.15;;;;;;;7.61;100.00;100808.81;5219959;28;20025;-78
2020/12/17 07:36:09;;;;;;;15.00;9.55;;;;;;;7.58;100.00;100819.28;5221778;28;20029;-79
2020/12/17 07:38:40;;;;;;;15.52;9.18;;;;;;;7.62;100.00;100810.50;5222140;28;20056;-78
2020/12/17 07:41:24;;;;;;;14.48;9.70;;;;;;;7.61;100.00;100814.00;5225698;28;20066;-78
2020/12/17 07:43:55;;;;;;;18.00;9.73;;;;;;;7.61;100.00;100809.66;5226311;28;20124;-79
2020/12/17 07:46:41;;;;;;;17.45;9.50;;;;;;;7.63;100.00;100809.63;5224767;28;20103;-79
2020/12/17 07:49:26;;;;;;;13.68;8.70;;;;;;;7.60;100.00;100801.88;5224240;28;20033;-79
2020/12/17 07:51:58;;;;;;;11.27;7.10;;;;;;;7.50;100.00;100795.19;5225791;28;20071;-78
2020/12/17 07:54:28;;;;;;;17.20;9.93;;;;;;;7.61;100.00;100795.78;5223497;28;20283;-79
2020/12/17 07:57:00;;;;;;;14.20;9.40;;;;;;;7.51;100.00;100789.94;5225016;28;20020;-79
2020/12/17 07:59:30;;;;;;;15.57;8.93;;;;;;;7.51;100.00;100794.28;5225645;28;20053;-78
2020/12/17 08:02:04;;;;;;;12.95;8.93;;;;;;;7.60;100.00;100783.69;5226186;28;20548;-79
2020/12/17 08:04:35;;;;;;;13.63;9.50;;;;;;;7.64;100.00;100799.19;5223308;28;20068;-78
2020/12/17 08:07:06;;;;;;;13.30;8.75;;;;;;;7.71;100.00;100800.78;5227037;28;20025;-79
2020/12/17 08:09:36;;;;;;;16.52;8.20;;;;;;;7.79;100.00;100783.28;5225129;28;20040;-79
2020/12/17 08:12:10;;;;;;;13.90;8.13;;;;;;;7.83;100.00;100790.13;5225893;28;20028;-78
2020/12/17 08:14:40;;;;;;;13.82;8.07;;;;;;;7.89;100.00;100795.19;5226539;28;20102;-79
2020/12/17 08:17:10;;;;;;;15.95;8.27;;;;;;;7.92;100.00;100799.47;5223650;28;20052;-78
2020/12/17 08:19:41;;;;;;;11.50;7.32;;;;;;;7.91;100.00;100802.97;5224368;28;20021;-79
2020/12/17 08:22:11;;;;;;;16.23;8.35;;;;;;;8.00;100.00;100806.25;5223057;28;20501;-79
2020/12/17 08:24:42;;;;;;;11.63;7.15;;;;;;;8.11;100.00;100806.88;5227861;28;20108;-79
2020/12/17 08:27:12;;;;;;;13.88;8.10;;;;;;;8.20;100.00;100809.28;5230358;28;20025;-79
2020/12/17 08:29:46;;;;;;;12.38;7.60;;;;;;;8.23;100.00;100805.78;5229491;28;20023;-79
2020/12/17 08:32:17;;;;;;;11.75;7.65;;;;;;;8.28;100.00;100801.31;5228028;28;20021;-79
2020/12/17 08:34:54;;;;;;;11.52;6.95;;;;;;;8.48;100.00;100814.72;5228546;28;20083;-79
2020/12/17 08:37:26;;;;;;;12.50;6.85;;;;;;;8.76;100.00;100808.81;5228735;28;20112;-79
2020/12/17 08:40:02;;;;;;;11.82;6.18;;;;;;;9.01;100.00;100816.88;5228483;28;20025;-79
2020/12/17 08:42:37;;;;;;;10.02;6.30;;;;;;;9.18;100.00;100807.75;5223939;28;20048;-79
2020/12/17 08:45:10;;;;;;;9.77;6.40;;;;;;;9.28;100.00;100811.84;5228176;28;20088;-79
2020/12/17 08:47:42;;;;;;;9.45;6.07;;;;;;;9.27;100.00;100817.91;5227615;28;20056;-79
2020/12/17 08:50:12;;;;;;;12.00;5.78;;;;;;;9.23;100.00;100816.28;5227790;28;20025;-79
2020/12/17 08:52:43;;;;;;;10.73;6.18;;;;;;;9.26;100.00;100816.22;5230556;28;20606;-79
2020/12/17 08:55:14;;;;;;;9.98;6.07;;;;;;;9.42;100.00;100809.69;5228032;28;20027;-79
2020/12/17 08:57:45;;;;;;;11.63;6.32;;;;;;;9.42;100.00;100812.28;5230188;28;20091;-79
2020/12/17 09:00:21;;;;;;;10.70;6.20;;;;;;;9.37;100.00;100809.84;5230094;28;20514;-79
2020/12/17 09:02:57;;;;;;;;;;;;;;;9.49;100.00;100814.69;5228568;28;20025;-79
2020/12/17 09:05:27;;;;;;;10.85;5.93;;;;;;;9.49;100.00;100811.25;5228296;28;19908;-79
2020/12/17 09:07:59;;;;;;;10.90;6.20;;;;;;;9.52;100.00;100817.22;5229046;28;20056;-79
2020/12/17 09:10:33;;;;;;;11.25;6.47;;;;;;;9.45;100.00;100818.28;5227831;28;20382;-79
2020/12/17 09:13:03;;;;;;;13.55;6.20;;;;;;;9.40;100.00;100814.97;5230911;28;20089;-79
2020/12/17 09:15:34;;;;;;;10.48;6.25;;;;;;;9.29;100.00;100829.19;5230624;28;20071;-79
2020/12/17 09:18:08;;;;;;;10.65;6.30;;;;;;;9.25;100.00;100835.34;5229599;28;20024;-79
2020/12/17 09:20:38;;;;;;;11.77;6.40;;;;;;;9.19;100.00;100832.91;5233391;28;20027;-79
2020/12/17 09:23:09;;;;;;;13.02;8.23;;;;;;;9.28;100.00;100830.09;5236019;28;20526;-77
2020/12/17 09:25:39;;;;;;;11.73;7.70;;;;;;;9.28;100.00;100833.53;5229459;28;20040;-81
2020/12/17 09:28:22;;;;;;;12.60;7.60;;;;;;;9.21;100.00;100828.53;5242227;28;20032;-80
2020/12/17 09:30:52;;;;;;;12.48;7.45;;;;;;;9.16;100.00;100835.63;5228742;28;20044;-80
2020/12/17 09:33:24;;;;;;;10.90;7.32;;;;;;;9.23;100.00;100839.75;5230070;28;20021;-78
2020/12/17 09:35:55;;;;;;;13.80;8.73;;;;;;;9.24;100.00;100855.38;5231215;28;20025;-80
2020/12/17 09:38:25;;;;;;;17.42;9.88;;;;;;;9.60;100.00;100848.31;5232855;28;20025;-77
2020/12/17 09:40:55;;;;;;;12.90;7.13;;;;;;;9.41;100.00;100860.16;5228099;28;20123;-79
2020/12/17 09:43:26;;;;;;;12.13;7.20;;;;;;;9.28;100.00;100867.44;5228298;28;20017;-77
2020/12/17 09:45:56;;;;;;;11.02;6.93;;;;;;;9.16;100.00;100872.97;5227817;28;20036;-79
2020/12/17 09:48:30;;;;;;;9.90;6.57;;;;;;;9.11;100.00;100867.91;5228694;28;20078;-79
2020/12/17 09:51:03;;;;;;;11.10;6.65;;;;;;;9.28;100.00;100877.03;5230136;28;20115;-79
2020/12/17 09:53:36;;;;;;;10.00;6.25;;;;;;;9.29;100.00;100869.16;5228739;28;20025;-77
2020/12/17 09:56:10;;;;;;;11.48;6.78;;;;;;;9.35;100.00;100862.94;5228537;28;20025;-79
2020/12/17 09:58:45;;;;;;;9.80;6.50;;;;;;;9.36;100.00;100859.41;5226404;28;20151;-80
2020/12/17 10:01:15;;;;;;;12.48;6.82;;;;;;;9.56;100.00;100846.69;5235883;28;20016;-77
2020/12/17 10:03:45;;;;;;;11.40;6.70;;;;;;;9.47;100.00;100846.97;5233015;28;20024;-80
2020/12/17 10:06:16;;;;;;;10.52;6.50;;;;;;;9.52;100.00;100835.47;5228932;28;20060;-79
2020/12/17 10:08:46;;;;;;;12.50;7.20;;;;;;;9.60;100.00;100856.16;5226835;28;20482;-79
2020/12/17 10:11:16;;;;;;;10.45;6.75;;;;;;;9.57;100.00;100851.88;5227794;28;20029;-79
2020/12/17 10:13:47;;;;;;;11.10;6.93;;;;;;;9.62;100.00;100846.56;5243036;28;20850;-79
2020/12/17 10:16:17;;;;;;;12.07;6.78;;;;;;;9.57;100.00;100858.84;5245173;28;20027;-79
2020/12/17 10:18:47;;;;;;;11.30;6.90;;;;;;;9.54;100.00;100854.59;5235316;28;20066;-80
2020/12/17 10:21:18;;;;;;;9.65;6.38;;;;;;;9.55;100.00;100850.19;5228413;28;20021;-79
2020/12/17 10:23:48;;;;;;;10.32;6.32;;;;;;;9.54;99.33;100858.94;5226402;28;20040;-79
2020/12/17 10:26:18;;;;;;;11.55;7.20;;;;;;;9.58;100.00;100850.13;5228179;28;20392;-79
2020/12/17 10:28:48;;;;;;;9.63;6.57;;;;;;;9.51;100.00;100861.63;5244830;28;20029;-79
2020/12/17 10:31:19;;;;;;;13.35;6.75;;;;;;;9.48;100.00;100864.31;5228945;28;20093;-77
2020/12/17 10:33:49;;;;;;;10.23;6.25;;;;;;;9.47;100.00;100873.06;5228740;28;20032;-76
2020/12/17 10:36:20;;;;;;;11.63;6.78;;;;;;;9.42;100.00;100882.72;5229683;28;20025;-78
2020/12/17 10:38:51;;;;;;;10.45;6.55;;;;;;;9.59;100.00;100894.44;5229532;28;20032;-79
2020/12/17 10:41:26;;;;;;;11.07;6.43;;;;;;;9.61;100.00;100900.47;5229037;28;20113;-80
2020/12/17 10:43:57;;;;;;;12.95;7.28;;;;;;;9.60;99.97;100892.69;5241489;28;20013;-80
2020/12/17 10:46:27;;;;;;;9.82;6.30;;;;;;;9.57;100.00;100887.53;5252153;28;20115;-78
2020/12/17 10:48:58;;;;;;;11.07;6.60;;;;;;;9.66;100.00;100895.13;5248102;28;20031;-78
2020/12/17 10:51:29;;;;;;;10.68;6.45;;;;;;;9.69;99.83;100893.28;5235396;28;20070;-79
2020/12/17 10:54:00;;;;;;;11.63;7.25;;;;;;;9.68;99.34;100894.19;5228393;28;20483;-79
2020/12/17 10:56:30;;;;;;;12.25;6.80;;;;;;;9.74;99.35;100901.00;5227856;28;20025;-79
2020/12/17 10:59:01;;;;;;;13.93;7.22;;;;;;;9.68;99.26;100906.41;5228955;28;20095;-79
2020/12/17 11:01:32;;;;;;;11.43;7.13;;;;;;;9.73;98.62;100901.91;5226861;28;20040;-77
2020/12/17 11:04:02;;;;;;;11.63;7.13;;;;;;;9.61;99.57;100910.03;5227583;28;20025;-78
2020/12/17 11:06:32;;;;;;;10.65;7.22;;;;;;;9.59;99.40;100914.44;5227151;28;20024;-77
2020/12/17 11:09:03;;;;;;;10.95;7.57;;;;;;;9.55;98.44;100912.81;5226343;28;20471;-79
2020/12/17 11:11:33;;;;;;;12.85;7.05;;;;;;;9.58;98.77;100905.78;5226674;28;20036;-79
2020/12/17 11:14:03;;;;;;;11.60;7.78;;;;;;;9.51;99.39;100895.53;5230007;28;20025;-80
2020/12/17 11:16:33;;;;;;;11.50;7.38;;;;;;;9.40;99.56;100908.88;5233647;28;20028;-80
2020/12/17 11:19:04;;;;;;;13.45;7.82;;;;;;;9.39;100.00;100908.91;5231232;28;20029;-80
2020/12/17 11:21:35;;;;;;;14.45;7.88;;;;;;;9.39;100.00;100898.47;5233711;28;20052;-79
2020/12/17 11:24:09;;;;;;;12.02;7.18;;;;;;;9.47;100.00;100909.56;5252535;28;20052;-79
2020/12/17 11:26:48;;;;;;;13.98;7.55;;;;;;;9.37;100.00;100910.69;5244135;28;20025;-79
2020/12/17 11:29:19;;;;;;;11.48;7.45;;;;;;;9.34;99.97;100919.44;5250173;28;20689;-78
2020/12/17 11:31:49;;;;;;;16.67;8.02;;;;;;;9.33;99.45;100912.50;5251282;28;20028;-78
2020/12/17 11:34:19;;;;;;;13.20;8.55;;;;;;;9.25;99.47;100922.28;5251818;28;20028;-79
2020/12/17 11:36:50;;;;;;;11.45;7.85;;;;;;;9.26;99.54;100926.59;5252705;28;20025;-79